Time;durP1;ratioP1;P1;durP2;ratioP2;P2;SDS_P1;SDS_P2;PMS_P1;PMS_P2;Temp;Humidity;BMP_temperature;BMP_pressure;BME280_temperature;BME280_humidity;BME280_pressure;Samples;Min_cycle;Max_cycle;Signal;HPM_P1;HPM_P2
2022/05/15 00:01:24;;;;;;;7.07;5.25;;;;;;;21.77;59.39;99789.84;5115830;28;20035;-73
2022/05/15 00:03:50;;;;;;;10.35;5.80;;;;;;;21.59;59.76;99777.28;5118155;28;20048;-73
2022/05/15 00:06:16;;;;;;;10.38;5.75;;;;;;;21.47;60.12;99788.06;5118419;28;20058;-73
2022/05/15 00:08:42;;;;;;;8.57;6.07;;;;;;;21.38;60.86;99778.66;5116966;28;20100;-73
2022/05/15 00:11:11;;;;;;;8.57;5.63;;;;;;;21.50;60.53;99778.69;5118732;28;20256;-73
2022/05/15 00:13:40;;;;;;;11.23;6.20;;;;;;;21.38;60.73;99777.84;5116433;28;20096;-73
2022/05/15 00:16:06;;;;;;;10.35;5.90;;;;;;;21.32;61.13;99777.72;5117171;28;20202;-73
2022/05/15 00:18:32;;;;;;;10.30;6.10;;;;;;;21.33;61.21;99770.47;5099985;28;20092;-73
2022/05/15 00:20:58;;;;;;;9.88;5.97;;;;;;;21.16;61.98;99781.06;5116294;28;20080;-73
2022/05/15 00:23:25;;;;;;;9.23;6.25;;;;;;;21.15;61.90;99771.31;5117356;28;20016;-73
2022/05/15 00:25:51;;;;;;;8.30;6.20;;;;;;;21.07;62.09;99771.66;5116695;28;20067;-73
2022/05/15 00:28:17;;;;;;;9.25;5.85;;;;;;;21.09;62.12;99780.31;5116679;28;20065;-73
2022/05/15 00:30:43;;;;;;;8.30;6.22;;;;;;;21.08;62.29;99777.88;5119165;28;20318;-73
2022/05/15 00:33:09;;;;;;;8.90;5.50;;;;;;;21.12;62.09;99777.19;5120957;28;20038;-73
2022/05/15 00:35:36;;;;;;;12.90;5.65;;;;;;;21.01;62.42;99786.03;5118913;28;20036;-72
2022/05/15 00:38:06;;;;;;;10.75;5.97;;;;;;;20.91;63.03;99781.19;5116744;28;20028;-73
2022/05/15 00:40:32;;;;;;;8.70;6.00;;;;;;;20.90;63.07;99784.94;5114753;28;20019;-73
2022/05/15 00:42:58;;;;;;;10.55;6.20;;;;;;;20.88;63.20;99791.59;5118105;28;20103;-72
2022/05/15 00:45:23;;;;;;;13.50;6.55;;;;;;;20.89;63.17;99790.56;5116430;28;20179;-73
2022/05/15 00:47:50;;;;;;;12.38;5.97;;;;;;;20.84;63.02;99793.09;5119585;28;20035;-73
2022/05/15 00:50:25;;;;;;;11.57;6.20;;;;;;;20.80;63.39;99794.56;5121320;28;20218;-73
2022/05/15 00:52:55;;;;;;;8.77;6.07;;;;;;;20.76;63.47;99796.09;5118682;28;20382;-73
2022/05/15 00:55:40;;;;;;;9.38;6.40;;;;;;;20.67;63.89;99796.41;5118098;28;20020;-73
2022/05/15 00:58:17;;;;;;;14.88;6.97;;;;;;;20.70;63.82;99800.50;5117404;28;20071;-73
2022/05/15 01:00:43;;;;;;;10.43;6.65;;;;;;;20.72;63.94;99807.31;5117917;28;20031;-73
2022/05/15 01:03:18;;;;;;;10.50;6.30;;;;;;;20.94;63.33;99804.16;5116588;28;20028;-73
2022/05/15 01:05:49;;;;;;;9.30;6.35;;;;;;;21.00;62.55;99800.53;5113930;28;20039;-73
2022/05/15 01:08:15;;;;;;;6.97;6.00;;;;;;;21.08;62.13;99804.78;5116945;28;20221;-73
2022/05/15 01:10:44;;;;;;;7.90;6.50;;;;;;;20.98;62.47;99805.34;5116547;28;20039;-73
2022/05/15 01:13:11;;;;;;;12.10;6.78;;;;;;;20.86;62.99;99797.22;5098094;28;20059;-73
2022/05/15 01:15:38;;;;;;;11.57;7.30;;;;;;;20.90;62.97;99813.72;5099235;28;20055;-73
2022/05/15 01:18:05;;;;;;;15.27;7.20;;;;;;;20.57;63.84;99801.50;5120596;28;20047;-73
2022/05/15 01:20:32;;;;;;;9.27;6.50;;;;;;;20.46;64.35;99809.50;5116737;28;20034;-73
2022/05/15 01:22:59;;;;;;;11.73;6.88;;;;;;;20.55;64.05;99808.97;5116520;28;20039;-73
2022/05/15 01:25:31;;;;;;;8.90;7.03;;;;;;;20.70;63.67;99801.31;5117948;28;20027;-73
2022/05/15 01:28:13;;;;;;;11.75;6.97;;;;;;;20.67;64.11;99803.66;5120799;28;20337;-73
2022/05/15 01:30:43;;;;;;;11.10;6.18;;;;;;;20.69;63.68;99804.25;5120776;28;20262;-73
2022/05/15 01:33:08;;;;;;;10.18;6.28;;;;;;;20.54;64.20;99806.50;5120095;28;20023;-73
2022/05/15 01:35:34;;;;;;;8.77;6.65;;;;;;;20.59;63.83;99798.56;5121086;28;20206;-73
2022/05/15 01:38:00;;;;;;;13.32;6.72;;;;;;;20.56;64.32;99809.78;5121108;28;20031;-73
2022/05/15 01:40:26;;;;;;;10.88;6.68;;;;;;;20.51;64.42;99812.31;5120053;28;20027;-73
2022/05/15 01:42:51;;;;;;;8.23;6.50;;;;;;;20.23;64.57;99777.88;5121206;28;20076;-73
2022/05/15 01:45:17;;;;;;;9.82;6.28;;;;;;;20.42;64.67;99813.69;5119732;28;20031;-73
2022/05/15 01:47:42;;;;;;;8.02;6.65;;;;;;;20.58;63.98;99815.75;5102479;28;20072;-73
2022/05/15 01:50:10;;;;;;;10.48;6.90;;;;;;;20.57;63.92;99812.25;5122647;28;20490;-73
2022/05/15 01:52:36;;;;;;;9.00;6.30;;;;;;;20.47;64.09;99805.75;5119621;28;20031;-73
2022/05/15 01:55:03;;;;;;;8.23;6.32;;;;;;;20.39;64.10;99813.06;5101310;28;20212;-73
2022/05/15 01:57:29;;;;;;;11.00;6.38;;;;;;;20.52;63.95;99816.66;5120272;28;20260;-73
2022/05/15 01:59:54;;;;;;;8.70;6.25;;;;;;;20.42;64.16;99822.56;5119038;28;20076;-73
2022/05/15 02:02:19;;;;;;;10.93;6.20;;;;;;;20.47;63.98;99819.19;5102281;28;20058;-73
2022/05/15 02:04:45;;;;;;;9.77;6.00;;;;;;;20.48;63.78;99824.34;5119387;28;20499;-73
2022/05/15 02:07:11;;;;;;;12.93;6.85;;;;;;;20.47;63.61;99824.59;5122880;28;20035;-73
2022/05/15 02:09:36;;;;;;;9.40;6.00;;;;;;;20.49;63.58;99823.31;5123331;28;20040;-73
2022/05/15 02:12:02;;;;;;;9.70;6.10;;;;;;;20.49;63.46;99822.50;5119680;28;20023;-73
2022/05/15 02:14:27;;;;;;;8.95;5.93;;;;;;;20.35;63.94;99819.09;5118923;28;20039;-73
2022/05/15 02:16:53;;;;;;;12.48;5.82;;;;;;;20.34;63.61;99814.75;5120057;28;20028;-73
2022/05/15 02:19:18;;;;;;;8.85;5.90;;;;;;;20.45;63.04;99822.13;5119977;28;20027;-73
2022/05/15 02:21:45;;;;;;;10.32;6.13;;;;;;;20.48;62.90;99824.34;5120698;28;20058;-73
2022/05/15 02:24:11;;;;;;;9.10;6.20;;;;;;;20.31;63.46;99836.72;5123187;28;20028;-72
2022/05/15 02:26:37;;;;;;;8.35;6.35;;;;;;;20.30;63.44;99835.91;5120982;28;20023;-73
2022/05/15 02:29:04;;;;;;;8.65;6.20;;;;;;;20.37;63.02;99839.34;5118613;28;20051;-73
2022/05/15 02:31:30;;;;;;;8.30;5.97;;;;;;;20.36;62.83;99837.69;5119077;28;20054;-73
2022/05/15 02:33:55;;;;;;;12.55;6.13;;;;;;;20.21;63.34;99839.94;5119905;28;20035;-72
2022/05/15 02:36:21;;;;;;;9.90;6.43;;;;;;;19.99;64.15;99841.38;5118538;28;20510;-73
2022/05/15 02:38:46;;;;;;;7.30;6.32;;;;;;;19.80;65.11;99840.50;5118836;28;20043;-72
2022/05/15 02:41:12;;;;;;;11.30;6.55;;;;;;;19.88;64.90;99840.25;5100904;28;20386;-72
2022/05/15 02:43:37;;;;;;;10.57;7.07;;;;;;;19.58;66.38;99850.78;5118604;28;20023;-73
2022/05/15 02:46:03;;;;;;;13.75;7.07;;;;;;;19.61;66.33;99846.84;5119940;28;20039;-73
2022/05/15 02:51:21;;;;;;;9.20;7.10;;;;;;;19.73;66.70;99858.53;5097450;28;20157;-72
2022/05/15 02:53:46;;;;;;;10.40;7.55;;;;;;;19.37;68.36;99846.56;5123783;28;20226;-72
2022/05/15 02:56:21;;;;;;;14.60;8.00;;;;;;;19.12;69.92;99867.16;5123775;28;20088;-73
2022/05/15 02:58:46;;;;;;;11.25;7.93;;;;;;;18.97;70.71;99864.75;5123504;28;20073;-72
2022/05/15 03:01:13;;;;;;;13.38;8.75;;;;;;;19.16;70.10;99862.19;5123759;28;20349;-72
2022/05/15 03:03:39;;;;;;;13.02;8.23;;;;;;;19.32;69.53;99864.34;5123938;28;20027;-72
2022/05/15 03:06:06;;;;;;;14.15;8.55;;;;;;;19.17;69.96;99863.81;5123777;28;20320;-73
2022/05/15 03:08:33;;;;;;;12.65;8.32;;;;;;;19.10;70.50;99864.69;5105489;28;20217;-73
2022/05/15 03:10:59;;;;;;;11.77;8.32;;;;;;;18.83;72.19;99863.16;5123991;28;20039;-73
2022/05/15 03:13:24;;;;;;;15.63;8.45;;;;;;;18.96;71.84;99867.66;5123427;28;20042;-73
2022/05/15 03:15:50;;;;;;;13.45;8.93;;;;;;;19.20;70.93;99866.06;5123626;28;20028;-72
2022/05/15 03:18:15;;;;;;;12.30;8.32;;;;;;;19.25;70.83;99863.56;5123759;28;20348;-73
2022/05/15 03:20:41;;;;;;;12.07;8.75;;;;;;;19.26;70.82;99870.59;5104971;28;20103;-73
2022/05/15 03:23:07;;;;;;;14.50;8.90;;;;;;;19.31;70.75;99871.59;5123472;28;20092;-72
2022/05/15 03:25:33;;;;;;;12.55;8.50;;;;;;;19.31;70.76;99878.81;5123503;28;20027;-72
2022/05/15 03:27:59;;;;;;;11.38;8.55;;;;;;;19.43;70.00;99875.22;5122981;28;20059;-73
2022/05/15 03:30:25;;;;;;;13.93;8.73;;;;;;;19.37;70.53;99881.47;5123637;28;20036;-72
2022/05/15 03:32:50;;;;;;;15.45;9.52;;;;;;;19.18;71.30;99881.56;5123359;28;20038;-73
2022/05/15 03:35:16;;;;;;;11.98;9.52;;;;;;;19.21;71.34;99889.19;5123350;28;20027;-73
2022/05/15 03:37:42;;;;;;;13.07;9.48;;;;;;;19.14;71.78;99887.38;5123222;28;20038;-73
2022/05/15 03:40:11;;;;;;;20.63;9.60;;;;;;;19.22;71.68;99888.16;5123243;28;20027;-72
2022/05/15 03:42:36;;;;;;;16.25;9.23;;;;;;;19.34;71.15;99886.44;5123006;28;20039;-73
2022/05/15 03:45:03;;;;;;;13.75;9.57;;;;;;;19.43;70.97;99882.47;5121151;28;20175;-73
2022/05/15 03:47:29;;;;;;;11.00;9.20;;;;;;;19.53;70.65;99890.91;5118769;28;20218;-73
2022/05/15 03:49:54;;;;;;;11.48;9.20;;;;;;;19.77;70.08;99895.50;5100618;28;20023;-73
2022/05/15 03:52:21;;;;;;;10.93;8.77;;;;;;;19.86;69.57;99892.56;5118868;28;20092;-73
2022/05/15 03:54:47;;;;;;;11.43;8.65;;;;;;;19.83;69.65;99890.31;5118834;27;20055;-73
2022/05/15 03:57:13;;;;;;;15.88;9.18;;;;;;;19.87;70.13;99892.34;5119534;28;20023;-73
2022/05/15 03:59:40;;;;;;;10.73;8.82;;;;;;;19.77;70.73;99892.00;5118656;28;20107;-73
2022/05/15 04:02:08;;;;;;;13.73;8.82;;;;;;;19.93;70.22;99896.00;5101026;28;20020;-72
2022/05/15 04:04:33;;;;;;;13.35;9.20;;;;;;;20.04;70.26;99898.00;5119131;28;20325;-72
2022/05/15 04:07:00;;;;;;;10.02;8.25;;;;;;;19.98;69.50;99891.63;5118279;28;20042;-73
2022/05/15 04:09:26;;;;;;;10.65;7.93;;;;;;;20.14;67.97;99898.31;5118502;28;20024;-73
2022/05/15 04:11:52;;;;;;;12.38;7.68;;;;;;;20.22;66.70;99898.03;5118809;28;20085;-73
2022/05/15 04:14:17;;;;;;;14.65;7.50;;;;;;;20.08;66.88;99902.72;5101418;28;20035;-73
2022/05/15 04:16:43;;;;;;;15.02;7.90;;;;;;;20.22;66.07;99895.34;5118843;28;20062;-73
2022/05/15 04:19:09;;;;;;;11.07;7.10;;;;;;;20.27;65.81;99892.81;5118765;28;20212;-73
2022/05/15 04:21:37;;;;;;;23.30;16.58;;;;;;;20.27;65.42;99900.06;5119355;28;20154;-73
2022/05/15 04:24:14;;;;;;;15.77;10.05;;;;;;;20.17;65.25;99891.66;5118174;28;20233;-73
2022/05/15 04:26:41;;;;;;;12.85;7.78;;;;;;;20.33;65.47;99900.00;5118385;28;20036;-73
2022/05/15 04:29:07;;;;;;;12.05;7.03;;;;;;;20.61;63.70;99896.03;5119523;28;20043;-73
2022/05/15 04:31:34;;;;;;;10.85;6.55;;;;;;;20.89;62.81;99895.53;5119472;28;20034;-73
2022/05/15 04:34:00;;;;;;;15.60;7.43;;;;;;;21.23;61.70;99892.22;5121058;28;20092;-73
2022/05/15 04:36:25;;;;;;;18.90;8.95;;;;;;;21.67;60.71;99898.22;5118756;28;20031;-73
2022/05/15 04:38:51;;;;;;;22.20;16.65;;;;;;;22.10;59.15;99902.56;5117882;28;20054;-73
2022/05/15 04:41:16;;;;;;;14.68;7.75;;;;;;;22.22;58.11;99900.69;5118603;28;20263;-73
2022/05/15 04:43:42;;;;;;;9.40;5.45;;;;;;;22.15;57.71;99886.50;5119287;28;20221;-73
2022/05/15 04:46:07;;;;;;;9.60;6.25;;;;;;;22.42;56.77;99898.47;5118173;28;20095;-73
2022/05/15 04:48:37;;;;;;;9.20;5.55;;;;;;;22.57;55.86;99892.59;5119319;28;20036;-73
2022/05/15 04:51:03;;;;;;;11.35;6.10;;;;;;;22.67;55.30;99897.38;5119202;28;20040;-73
2022/05/15 04:53:30;;;;;;;9.70;6.63;;;;;;;22.78;54.90;99896.53;5118631;28;20042;-73
2022/05/15 04:55:56;;;;;;;9.07;6.00;;;;;;;22.86;54.49;99898.91;5100554;28;20039;-73
2022/05/15 04:58:21;;;;;;;16.35;8.05;;;;;;;23.13;53.97;99901.91;5117850;28;20131;-73
2022/05/15 05:00:48;;;;;;;18.83;6.97;;;;;;;23.33;53.26;99899.59;5120628;28;20027;-73
2022/05/15 05:03:13;;;;;;;14.77;6.15;;;;;;;23.60;52.55;99910.66;5122337;28;20044;-73
2022/05/15 05:05:39;;;;;;;11.55;5.28;;;;;;;24.05;51.25;99899.81;5122165;28;20031;-73
2022/05/15 05:08:07;;;;;;;13.35;6.75;;;;;;;24.33;50.50;99911.66;5122842;28;20043;-73
2022/05/15 05:10:32;;;;;;;9.43;4.68;;;;;;;24.40;49.81;99918.53;5087030;28;20198;-73
2022/05/15 05:12:58;;;;;;;9.00;5.20;;;;;;;24.58;49.80;99911.19;5121922;28;20042;-74
2022/05/15 05:15:23;;;;;;;8.85;5.22;;;;;;;25.01;48.59;99911.28;5122938;28;20019;-73
2022/05/15 05:17:48;;;;;;;9.32;5.55;;;;;;;24.92;47.71;99907.31;5123841;28;20042;-73
2022/05/15 05:20:14;;;;;;;11.50;4.72;;;;;;;24.97;47.72;99907.44;5123216;28;20027;-73
2022/05/15 05:22:40;;;;;;;9.75;4.68;;;;;;;25.04;47.51;99902.66;5122723;28;20044;-73
2022/05/15 05:25:06;;;;;;;12.05;4.60;;;;;;;25.34;45.84;99913.00;5121572;28;20118;-73
2022/05/15 05:27:32;;;;;;;14.70;4.53;;;;;;;25.49;45.79;99898.78;5092833;28;20031;-73
2022/05/15 05:29:57;;;;;;;8.65;4.32;;;;;;;25.50;45.10;99902.31;5122228;28;20259;-73
2022/05/15 05:32:23;;;;;;;9.50;5.10;;;;;;;25.37;45.35;99907.06;5121482;28;20034;-73
2022/05/15 05:34:49;;;;;;;11.60;4.68;;;;;;;25.72;44.52;99908.53;5122498;28;20054;-73
2022/05/15 05:37:17;;;;;;;8.02;4.75;;;;;;;25.68;44.20;99902.81;5121609;28;20399;-74
2022/05/15 05:39:43;;;;;;;12.65;5.45;;;;;;;25.94;43.65;99908.44;5121250;28;20043;-73
2022/05/15 05:42:09;;;;;;;8.85;4.50;;;;;;;26.19;43.19;99897.81;5122088;28;20042;-74
2022/05/15 05:44:34;;;;;;;11.30;4.80;;;;;;;26.39;42.53;99903.41;5121228;28;20288;-73
2022/05/15 05:47:00;;;;;;;11.55;4.65;;;;;;;26.43;42.06;99902.88;5121806;28;20039;-73
2022/05/15 05:49:25;;;;;;;9.05;5.10;;;;;;;26.03;42.72;99906.94;5124052;28;20060;-73
2022/05/15 05:51:51;;;;;;;12.27;4.20;;;;;;;26.39;41.71;99908.03;5123749;28;20032;-73
2022/05/15 05:54:16;;;;;;;10.32;4.43;;;;;;;26.50;40.99;99912.44;5120893;28;20032;-73
2022/05/15 05:56:42;;;;;;;8.70;3.88;;;;;;;26.97;40.06;99917.03;5103431;28;20139;-74
2022/05/15 05:59:07;;;;;;;6.45;3.88;;;;;;;26.88;39.83;99911.28;5120564;28;20038;-73
2022/05/15 06:01:33;;;;;;;9.50;4.10;;;;;;;27.30;39.34;99913.94;5121168;28;20023;-73
2022/05/15 06:06:43;;;;;;;13.02;3.85;;;;;;;27.33;39.43;99907.16;5106015;28;20260;-74
2022/05/15 06:09:09;;;;;;;12.45;3.97;;;;;;;27.63;38.88;99892.81;5120674;28;20187;-73
2022/05/15 06:11:34;;;;;;;7.70;3.67;;;;;;;27.39;38.90;99908.78;5121049;28;20038;-73
2022/05/15 06:14:00;;;;;;;10.18;3.42;;;;;;;27.76;37.92;99902.34;5123580;28;20031;-74
2022/05/15 06:16:25;;;;;;;7.93;3.28;;;;;;;27.73;37.46;99902.88;5122304;28;20336;-73
2022/05/15 06:18:51;;;;;;;6.40;3.30;;;;;;;27.60;37.55;99909.66;5120813;28;20239;-74
2022/05/15 06:21:17;;;;;;;6.53;3.40;;;;;;;27.60;37.49;99902.34;5121470;28;20200;-73
2022/05/15 06:23:42;;;;;;;5.57;3.15;;;;;;;27.80;37.37;99900.72;5120602;28;20031;-73
2022/05/15 06:26:08;;;;;;;6.63;3.40;;;;;;;27.63;37.81;99907.22;5119717;28;20023;-73
2022/05/15 06:28:34;;;;;;;4.75;3.03;;;;;;;28.12;36.94;99901.28;5120084;28;20020;-73
2022/05/15 06:31:01;;;;;;;5.65;3.20;;;;;;;28.36;36.84;99896.09;5119331;28;20059;-73
2022/05/15 06:33:27;;;;;;;7.35;3.30;;;;;;;28.81;35.81;99888.88;5119650;28;20037;-73
2022/05/15 06:35:52;;;;;;;8.60;3.10;;;;;;;29.31;35.25;99895.25;5120082;28;20020;-73
2022/05/15 06:38:18;;;;;;;8.95;2.97;;;;;;;28.94;34.24;99893.78;5119471;27;20043;-73
2022/05/15 06:40:44;;;;;;;15.68;3.65;;;;;;;29.48;33.98;99888.34;5101195;28;20034;-74
2022/05/15 06:43:10;;;;;;;5.95;3.22;;;;;;;29.82;33.31;99887.53;5119121;28;20031;-73
2022/05/15 06:45:36;;;;;;;6.32;3.00;;;;;;;29.87;33.42;99888.31;5120019;28;20100;-73
2022/05/15 06:48:02;;;;;;;7.20;3.22;;;;;;;29.75;33.80;99890.59;5119718;28;20058;-73
2022/05/15 06:50:27;;;;;;;5.22;3.25;;;;;;;29.44;33.44;99887.28;5119185;27;20023;-74
2022/05/15 06:52:53;;;;;;;7.88;3.40;;;;;;;29.10;34.62;99887.16;5120161;28;20073;-73
2022/05/15 06:55:22;;;;;;;9.30;3.17;;;;;;;28.60;35.17;99882.69;5118808;28;20031;-73
2022/05/15 06:57:48;;;;;;;9.73;2.72;;;;;;;29.09;34.54;99884.69;5100125;28;20035;-74
2022/05/15 07:00:26;;;;;;;9.40;3.60;;;;;;;29.38;34.30;99882.94;5119943;28;20229;-73
2022/05/15 07:02:52;;;;;;;4.60;3.10;;;;;;;29.47;34.84;99877.72;5119520;28;20039;-74
2022/05/15 07:05:24;;;;;;;7.85;3.13;;;;;;;29.69;34.40;99882.75;5103429;27;20076;-73
2022/05/15 07:07:52;;;;;;;8.00;4.03;;;;;;;29.91;33.71;99887.75;5100172;28;20058;-73
2022/05/15 07:10:18;;;;;;;4.72;3.30;;;;;;;30.09;33.82;99881.59;5119341;28;20100;-73
2022/05/15 07:12:43;;;;;;;9.60;2.97;;;;;;;30.86;31.98;99878.91;5118646;28;20035;-73
2022/05/15 07:15:09;;;;;;;6.13;2.80;;;;;;;30.22;30.97;99882.88;5118522;28;20049;-73
2022/05/15 07:17:34;;;;;;;8.00;2.55;;;;;;;29.75;30.35;99873.41;5119479;28;20133;-73
2022/05/15 07:20:00;;;;;;;10.88;2.42;;;;;;;29.69;29.61;99882.75;5118286;28;20087;-73
2022/05/15 07:22:26;;;;;;;6.57;2.03;;;;;;;30.04;28.21;99876.19;5118861;28;20397;-74
2022/05/15 07:24:51;;;;;;;5.38;2.45;;;;;;;30.09;27.70;99876.97;5119276;28;20032;-73
2022/05/15 07:27:17;;;;;;;6.40;2.50;;;;;;;29.69;28.97;99869.91;5118056;28;20039;-73
2022/05/15 07:29:43;;;;;;;9.25;3.22;;;;;;;29.56;28.84;99878.75;5118877;27;20023;-73
2022/05/15 07:32:09;;;;;;;13.73;3.45;;;;;;;29.75;29.45;99868.78;5118869;28;20042;-73
2022/05/15 07:34:38;;;;;;;18.17;3.42;;;;;;;29.76;28.49;99875.84;5100521;27;20039;-74
2022/05/15 07:37:04;;;;;;;12.43;2.75;;;;;;;30.43;28.16;99871.44;5117997;28;20226;-73
2022/05/15 07:39:29;;;;;;;11.68;3.08;;;;;;;30.44;28.47;99870.34;5118849;28;20130;-73
2022/05/15 07:41:55;;;;;;;5.07;2.65;;;;;;;30.38;27.58;99868.78;5117589;28;20048;-73
2022/05/15 07:44:21;;;;;;;6.20;2.35;;;;;;;29.89;27.90;99868.94;5118751;28;20260;-73
2022/05/15 07:46:46;;;;;;;6.05;2.20;;;;;;;29.66;27.77;99873.22;5117731;28;20047;-73
2022/05/15 07:49:13;;;;;;;9.20;3.00;;;;;;;30.05;27.68;99867.72;5099941;27;20315;-73
2022/05/15 07:51:44;;;;;;;5.88;3.05;;;;;;;30.28;27.84;99868.06;5118892;28;20031;-73
2022/05/15 07:54:11;;;;;;;9.27;2.78;;;;;;;30.27;27.32;99878.19;5118567;28;20356;-73
2022/05/15 07:56:36;;;;;;;5.43;2.90;;;;;;;30.28;27.13;99868.06;5117815;28;20080;-73
2022/05/15 07:59:02;;;;;;;6.25;2.33;;;;;;;30.41;27.04;99870.94;5118604;28;20027;-74
2022/05/15 08:01:29;;;;;;;11.25;2.08;;;;;;;30.22;27.22;99869.22;5117637;28;20047;-73
2022/05/15 08:03:54;;;;;;;4.40;2.60;;;;;;;30.57;27.29;99866.09;5098435;28;20019;-73
2022/05/15 08:09:06;;;;;;;7.22;2.00;;;;;;;30.44;26.61;99880.47;5118109;28;20038;-73
2022/05/15 08:11:32;;;;;;;4.68;2.20;;;;;;;30.99;25.43;99875.47;5100037;28;20015;-73
2022/05/15 08:14:01;;;;;;;11.73;3.17;;;;;;;31.03;25.19;99880.03;5117700;28;20035;-74
2022/05/15 08:16:28;;;;;;;4.72;2.22;;;;;;;31.11;25.63;99881.31;5118313;28;20065;-73
2022/05/15 08:24:22;;;;;;;5.22;1.98;;;;;;;32.08;23.71;99881.50;5118387;28;20038;-73
2022/05/15 08:26:49;;;;;;;15.45;2.67;;;;;;;31.77;24.35;99887.81;5117232;28;20237;-74
2022/05/15 08:29:15;;;;;;;5.82;2.55;;;;;;;32.15;23.12;99883.84;5118697;28;20314;-73
2022/05/15 08:31:41;;;;;;;4.75;2.10;;;;;;;32.11;23.13;99882.03;5117011;28;20043;-73
2022/05/15 08:34:08;;;;;;;4.97;1.63;;;;;;;32.33;24.09;99882.22;5116908;28;20027;-74
2022/05/15 08:36:34;;;;;;;6.90;1.90;;;;;;;32.37;23.13;99875.81;5121673;27;20215;-72
2022/05/15 08:39:00;;;;;;;8.82;3.67;;;;;;;32.35;23.86;99880.78;5120687;27;20028;-71
2022/05/15 08:41:28;;;;;;;9.18;5.80;;;;;;;32.37;23.89;99875.81;5119981;28;20027;-71
2022/05/15 08:44:15;;;;;;;6.45;2.03;;;;;;;32.83;23.36;99872.19;5122200;28;20043;-71
2022/05/15 08:47:17;;;;;;;12.95;2.75;;;;;;;32.32;22.45;99875.13;5120688;27;20321;-71
2022/05/15 08:49:45;;;;;;;7.55;2.05;;;;;;;32.17;23.16;99884.38;5080553;28;20036;-71
2022/05/15 08:52:34;;;;;;;5.47;1.90;;;;;;;32.24;23.42;99884.00;5120512;28;20099;-71
2022/05/15 08:55:15;;;;;;;5.38;2.15;;;;;;;32.41;22.93;99883.44;5120268;28;20473;-71
2022/05/15 08:57:44;;;;;;;6.63;2.40;;;;;;;31.99;23.81;99877.03;5120350;27;20047;-71
2022/05/15 09:00:14;;;;;;;3.42;2.17;;;;;;;31.78;22.23;99882.03;5120498;28;20065;-71
2022/05/15 09:02:42;;;;;;;12.32;2.20;;;;;;;32.17;23.01;99886.28;5120351;27;20329;-71
2022/05/15 09:05:08;;;;;;;12.07;3.00;;;;;;;32.00;22.37;99886.88;5120886;27;20109;-71
2022/05/15 09:07:43;;;;;;;9.65;2.28;;;;;;;32.37;22.16;99885.97;5120237;28;20071;-71
2022/05/15 09:10:15;;;;;;;3.03;1.80;;;;;;;33.02;20.72;99874.81;5118945;28;20050;-71
2022/05/15 09:12:46;;;;;;;9.75;3.72;;;;;;;32.81;21.17;99868.13;5120106;28;20329;-71
2022/05/15 09:15:21;;;;;;;5.93;1.80;;;;;;;33.17;21.28;99874.47;5121109;28;20341;-71
2022/05/15 09:18:00;;;;;;;9.88;2.22;;;;;;;33.42;21.77;99870.41;5121297;28;20050;-71
2022/05/15 09:20:26;;;;;;;16.17;1.83;;;;;;;33.31;21.22;99866.25;5121350;27;20020;-71
2022/05/15 09:22:59;;;;;;;4.57;2.05;;;;;;;32.56;22.44;99856.53;5120061;28;20028;-71
2022/05/15 09:25:25;;;;;;;6.75;2.10;;;;;;;31.92;22.99;99868.38;5118909;27;20090;-71
2022/05/15 09:28:07;;;;;;;6.30;2.00;;;;;;;31.59;21.99;99867.53;5121043;28;20046;-71
2022/05/15 09:30:41;;;;;;;17.10;2.10;;;;;;;31.03;22.47;99866.38;5120624;28;20031;-71
2022/05/15 09:33:07;;;;;;;;;;;;;;;31.28;22.73;99862.53;5121008;28;20032;-71
2022/05/15 09:35:41;;;;;;;6.68;2.55;;;;;;;31.54;22.59;99862.94;5120127;28;19970;-71
2022/05/15 09:38:27;;;;;;;9.93;2.20;;;;;;;31.42;21.98;99870.81;5119328;28;20031;-71
2022/05/15 09:44:01;;;;;;;10.15;1.60;;;;;;;31.42;21.59;99862.59;5120912;28;20077;-71
2022/05/15 09:46:28;;;;;;;4.03;1.80;;;;;;;31.08;20.62;99857.28;5119136;27;20261;-71
2022/05/15 09:49:00;;;;;;;6.28;1.73;;;;;;;31.20;21.77;99862.34;5119148;28;20322;-71
2022/05/15 09:51:35;;;;;;;5.25;1.80;;;;;;;31.08;21.39;99855.34;5120664;28;20043;-71
2022/05/15 09:54:01;;;;;;;6.70;1.65;;;;;;;31.13;22.63;99844.34;5120696;28;20047;-71
2022/05/15 09:56:30;;;;;;;5.63;1.77;;;;;;;31.09;22.92;99840.56;5120372;28;21338;-71
2022/05/15 09:58:58;;;;;;;7.25;1.85;;;;;;;30.95;22.26;99847.88;5119819;28;20050;-71
2022/05/15 10:01:33;;;;;;;3.92;1.73;;;;;;;30.84;22.11;99853.78;5121111;28;20034;-71
2022/05/15 10:03:59;;;;;;;23.75;2.60;;;;;;;30.79;22.81;99839.06;5120104;28;20035;-71
2022/05/15 10:06:28;;;;;;;4.40;1.60;;;;;;;30.47;22.89;99839.72;5120256;28;20027;-71
2022/05/15 10:09:24;;;;;;;5.88;1.63;;;;;;;30.48;22.99;99843.25;5119939;28;20031;-71
2022/05/15 10:12:00;;;;;;;3.60;2.15;;;;;;;30.23;23.16;99843.53;5119054;28;20039;-71
2022/05/15 10:14:36;;;;;;;5.03;1.70;;;;;;;30.42;21.49;99847.16;5118861;28;20099;-71
2022/05/15 10:17:03;;;;;;;9.02;2.00;;;;;;;30.43;23.13;99805.88;5119760;27;20042;-71
2022/05/15 10:20:00;;;;;;;5.88;1.70;;;;;;;30.05;23.72;99832.22;5120628;28;20051;-73
2022/05/15 10:22:56;;;;;;;2.88;1.70;;;;;;;29.53;23.04;99839.19;5120110;27;20230;-71
2022/05/15 10:25:49;;;;;;;9.52;2.15;;;;;;;29.68;23.93;99832.00;5120289;27;20035;-71
2022/05/15 10:28:33;;;;;;;5.40;1.55;;;;;;;29.59;22.64;99831.78;5119223;28;20058;-73
2022/05/15 10:31:05;;;;;;;;;;;;;;;29.74;23.40;99830.84;5121874;28;20039;-73
2022/05/15 10:33:36;;;;;;;4.20;1.77;;;;;;;29.98;23.86;99831.72;5122113;28;19965;-73
2022/05/15 10:36:34;;;;;;;9.60;2.28;;;;;;;29.59;22.82;99833.69;5120563;28;20032;-73
2022/05/15 10:39:38;;;;;;;8.80;1.73;;;;;;;29.70;24.34;99819.69;5119182;28;20097;-73
2022/05/15 10:42:18;;;;;;;4.07;1.70;;;;;;;29.63;23.46;99821.13;5119940;28;20035;-73
2022/05/15 10:44:52;;;;;;;5.93;1.77;;;;;;;29.48;23.95;99824.78;5119899;28;20039;-73
2022/05/15 10:47:27;;;;;;;3.70;1.88;;;;;;;29.76;23.71;99817.72;5119245;28;20336;-73
2022/05/15 10:50:20;;;;;;;4.32;1.60;;;;;;;29.53;24.11;99809.19;5118779;28;20217;-73
2022/05/15 10:52:51;;;;;;;4.15;1.70;;;;;;;29.60;23.31;99808.88;5101404;28;20296;-73
2022/05/15 10:59:00;;;;;;;5.15;1.50;;;;;;;29.17;23.54;99814.06;5121857;28;20077;-73
2022/05/15 11:01:36;;;;;;;5.45;1.70;;;;;;;29.28;23.45;99801.16;5089181;28;20035;-73
2022/05/15 11:04:23;;;;;;;10.20;1.85;;;;;;;29.21;24.43;99803.41;5128364;27;20038;-73
2022/05/15 11:07:02;;;;;;;3.50;1.90;;;;;;;29.39;24.33;99802.72;5122262;28;20046;-73
2022/05/15 11:09:58;;;;;;;4.75;1.95;;;;;;;29.38;24.83;99795.63;5122684;28;20039;-73
2022/05/15 11:12:45;;;;;;;6.57;1.75;;;;;;;29.17;24.02;99803.16;5122113;28;20218;-73
2022/05/15 11:15:39;;;;;;;5.65;1.85;;;;;;;29.19;24.70;99794.69;5122540;28;20124;-73
2022/05/15 11:18:16;;;;;;;3.40;1.50;;;;;;;29.12;23.73;99797.72;5122489;28;20031;-73
2022/05/15 11:20:55;;;;;;;2.90;1.95;;;;;;;29.21;22.86;99793.31;5121694;28;20031;-73
2022/05/15 11:23:53;;;;;;;4.93;1.40;;;;;;;29.59;22.46;99793.59;5122414;28;20343;-73
2022/05/15 11:26:24;;;;;;;3.75;1.50;;;;;;;29.60;21.83;99791.69;5121615;27;20346;-70
2022/05/15 11:28:56;;;;;;;3.38;1.52;;;;;;;29.74;22.43;99785.25;5121082;28;20055;-73
2022/05/15 11:31:28;;;;;;;3.80;1.52;;;;;;;29.68;22.69;99782.88;5122535;28;20060;-71
2022/05/15 11:34:03;;;;;;;3.75;1.65;;;;;;;29.62;22.84;99778.56;5122373;28;20053;-71
2022/05/15 11:36:33;;;;;;;29.05;3.92;;;;;;;29.68;23.04;99786.41;5122283;28;20035;-71
2022/05/15 11:39:00;;;;;;;4.07;1.40;;;;;;;29.89;22.72;99776.09;5122041;28;20349;-70
2022/05/15 11:41:34;;;;;;;9.38;1.83;;;;;;;29.43;23.42;99776.53;5122518;28;20081;-73
2022/05/15 11:44:49;;;;;;;4.10;1.52;;;;;;;29.31;23.57;99773.34;5122255;28;20043;-73
2022/05/15 11:47:15;;;;;;;2.63;1.50;;;;;;;29.31;24.64;99777.97;5115875;28;20048;-73
2022/05/15 11:50:00;;;;;;;4.40;1.70;;;;;;;29.43;24.00;99775.72;5118789;28;20102;-73
2022/05/15 11:52:35;;;;;;;5.28;1.80;;;;;;;29.47;23.49;99766.69;5118252;28;20070;-73
2022/05/15 11:55:35;;;;;;;5.53;1.88;;;;;;;29.27;24.23;99771.47;5118619;28;20364;-73
2022/05/15 11:58:14;;;;;;;5.78;1.95;;;;;;;29.57;23.64;99756.78;5116386;28;20043;-73
2022/05/15 12:00:42;;;;;;;13.20;3.55;;;;;;;29.73;24.43;99758.25;5117538;28;20057;-73
2022/05/15 12:03:39;;;;;;;7.60;1.85;;;;;;;29.45;23.84;99757.16;5118229;28;20047;-73